Etusivu
METAR-TAF:

METAR-TAF

Lentoasemat :

Berlevåg, Norja

Leveyspiiri: 70-52N, Pituuspiiri: 029-02E, korkeus merenpinnasta: 1 m

Tämänhetkinen sää

Tämä raportti tehtiin 22 tuntia ja 55 minuuttia sitten, kello 19.50 UTC
Tuuli 6 kn idästä
Lämpötila 10°C
Kosteus 87%
Ilmanpaine 1022 hPa
Näkyvyys 10 km tai enemmän
Hajonneita pilviä 3900 ft:n korkeudessa

METAR: ENBV 211950Z 10006KT 9999 BKN039 10/08 Q1022

Aika: 20:45 (18:45 UTC)


TAF: puuttuu

Säähavainnot ja -ennusteet yli 4000 lentoasemalta (METAR- ja TAF-raportit).

Käytössä olevat sääasemat on merkitty karttaan keltaisilla ja punaisilla pisteillä.

Aseta hiiri pisteen päälle nähdäksesi sääaseman nimen.

Klikkaa sitten nähdäksesi säähavainnot ja -ennusteet.

Kartan vaihtaminen: klikkaa mustalla rastilla varustettuja vihreitä pisteitä, niin voit zoomata sisään; viivalla varustettua vihreää pistettä, niin voit zoomata ulos tai vihreitä nuolia, niin pääset viereisille kartoille.


METAR-TAF: